sensor_id;sensor_type;location;lat;lon;timestamp;pressure;altitude;pressure_sealevel;temperature;humidity
17764;BME280;22245;52.832;13.816;2023-04-06T00:02:43;101988.34;;;5.10;61.96
17764;BME280;22245;52.832;13.816;2023-04-06T00:06:04;101980.41;;;5.10;62.15
17764;BME280;22245;52.832;13.816;2023-04-06T00:09:26;101989.25;;;5.09;61.89
17764;BME280;22245;52.832;13.816;2023-04-06T00:12:49;101985.84;;;5.07;62.39
17764;BME280;22245;52.832;13.816;2023-04-06T00:16:11;101988.41;;;5.09;63.15
17764;BME280;22245;52.832;13.816;2023-04-06T00:19:33;101980.50;;;5.09;63.58
17764;BME280;22245;52.832;13.816;2023-04-06T00:22:54;101981.34;;;5.09;64.58
17764;BME280;22245;52.832;13.816;2023-04-06T00:26:16;101984.06;;;5.07;64.82
17764;BME280;22245;52.832;13.816;2023-04-06T00:29:41;101975.34;;;5.05;65.09
17764;BME280;22245;52.832;13.816;2023-04-06T00:33:03;101979.75;;;5.05;65.10
17764;BME280;22245;52.832;13.816;2023-04-06T00:36:25;101973.78;;;5.01;65.33
17764;BME280;22245;52.832;13.816;2023-04-06T00:39:47;101968.63;;;4.98;65.13
17764;BME280;22245;52.832;13.816;2023-04-06T00:43:09;101964.31;;;4.96;65.21
17764;BME280;22245;52.832;13.816;2023-04-06T00:46:32;101970.59;;;4.93;65.60
17764;BME280;22245;52.832;13.816;2023-04-06T00:49:54;101966.22;;;4.92;65.19
17764;BME280;22245;52.832;13.816;2023-04-06T00:53:16;101975.94;;;4.91;65.58
17764;BME280;22245;52.832;13.816;2023-04-06T00:56:38;101960.25;;;4.87;64.58
17764;BME280;22245;52.832;13.816;2023-04-06T01:00:00;101961.19;;;4.86;64.28
17764;BME280;22245;52.832;13.816;2023-04-06T01:03:23;101963.97;;;4.83;63.67
17764;BME280;22245;52.832;13.816;2023-04-06T01:06:46;101960.59;;;4.79;63.83
17764;BME280;22245;52.832;13.816;2023-04-06T01:10:08;101956.31;;;4.76;63.39
17764;BME280;22245;52.832;13.816;2023-04-06T01:13:30;101945.88;;;4.73;63.61
17764;BME280;22245;52.832;13.816;2023-04-06T01:16:58;101951.16;;;4.73;64.06
17764;BME280;22245;52.832;13.816;2023-04-06T01:20:25;101951.94;;;4.75;65.48
17764;BME280;22245;52.832;13.816;2023-04-06T01:23:48;101958.16;;;4.74;65.70
17764;BME280;22245;52.832;13.816;2023-04-06T01:27:17;101960.84;;;4.73;66.17
17764;BME280;22245;52.832;13.816;2023-04-06T01:30:44;101959.19;;;4.70;66.33
17764;BME280;22245;52.832;13.816;2023-04-06T01:34:19;101957.66;;;4.64;65.93
17764;BME280;22245;52.832;13.816;2023-04-06T01:37:40;101966.56;;;4.62;65.76
17764;BME280;22245;52.832;13.816;2023-04-06T01:41:08;101963.13;;;4.60;66.40
17764;BME280;22245;52.832;13.816;2023-04-06T01:44:40;101953.63;;;4.56;65.97
17764;BME280;22245;52.832;13.816;2023-04-06T01:48:07;101956.38;;;4.53;66.10
17764;BME280;22245;52.832;13.816;2023-04-06T01:51:29;101958.22;;;4.51;65.70
17764;BME280;22245;52.832;13.816;2023-04-06T01:54:53;101955.69;;;4.47;66.08
17764;BME280;22245;52.832;13.816;2023-04-06T01:58:44;101956.75;;;4.43;66.05
17764;BME280;22245;52.832;13.816;2023-04-06T02:02:08;101952.50;;;4.39;65.77
17764;BME280;22245;52.832;13.816;2023-04-06T02:05:33;101961.50;;;4.33;66.78
17764;BME280;22245;52.832;13.816;2023-04-06T02:09:08;101963.47;;;4.28;67.35
17764;BME280;22245;52.832;13.816;2023-04-06T02:12:30;101958.53;;;4.20;67.31
17764;BME280;22245;52.832;13.816;2023-04-06T02:15:54;101955.25;;;4.14;67.49
17764;BME280;22245;52.832;13.816;2023-04-06T02:19:19;101955.63;;;4.04;68.13
17764;BME280;22245;52.832;13.816;2023-04-06T02:22:41;101949.72;;;3.98;67.89
17764;BME280;22245;52.832;13.816;2023-04-06T02:26:02;101952.69;;;3.88;68.51
17764;BME280;22245;52.832;13.816;2023-04-06T02:29:24;101949.38;;;3.83;68.56
17764;BME280;22245;52.832;13.816;2023-04-06T02:32:48;101948.75;;;3.76;68.90
17764;BME280;22245;52.832;13.816;2023-04-06T02:36:10;101946.22;;;3.73;68.88
17764;BME280;22245;52.832;13.816;2023-04-06T02:39:32;101947.28;;;3.68;68.85
17764;BME280;22245;52.832;13.816;2023-04-06T02:42:55;101945.56;;;3.67;69.87
17764;BME280;22245;52.832;13.816;2023-04-06T02:46:22;101947.41;;;3.65;69.03
17764;BME280;22245;52.832;13.816;2023-04-06T02:49:45;101950.97;;;3.64;67.41
17764;BME280;22245;52.832;13.816;2023-04-06T02:53:09;101953.44;;;3.68;67.26
17764;BME280;22245;52.832;13.816;2023-04-06T02:56:32;101951.72;;;3.67;67.09
17764;BME280;22245;52.832;13.816;2023-04-06T02:59:55;101945.56;;;3.67;66.74
17764;BME280;22245;52.832;13.816;2023-04-06T03:03:24;101945.56;;;3.67;66.29
17764;BME280;22245;52.832;13.816;2023-04-06T03:06:47;101951.84;;;3.64;67.17
17764;BME280;22245;52.832;13.816;2023-04-06T03:10:17;101949.34;;;3.59;67.49
17764;BME280;22245;52.832;13.816;2023-04-06T03:13:40;101955.81;;;3.51;67.68
17764;BME280;22245;52.832;13.816;2023-04-06T03:17:03;101948.22;;;3.43;68.27
17764;BME280;22245;52.832;13.816;2023-04-06T03:20:25;101951.09;;;3.35;68.07
17764;BME280;22245;52.832;13.816;2023-04-06T03:23:49;101954.00;;;3.27;68.46
17764;BME280;22245;52.832;13.816;2023-04-06T03:27:11;101961.31;;;3.19;68.56
17764;BME280;22245;52.832;13.816;2023-04-06T03:30:34;101965.09;;;3.10;68.55
17764;BME280;22245;52.832;13.816;2023-04-06T03:33:56;101964.50;;;3.02;68.98
17764;BME280;22245;52.832;13.816;2023-04-06T03:37:23;101964.84;;;2.93;69.15
17764;BME280;22245;52.832;13.816;2023-04-06T03:40:50;101967.72;;;2.85;69.42
17764;BME280;22245;52.832;13.816;2023-04-06T03:44:16;101975.00;;;2.77;69.62
17764;BME280;22245;52.832;13.816;2023-04-06T03:47:38;101969.97;;;2.69;70.27
17764;BME280;22245;52.832;13.816;2023-04-06T03:51:01;101975.44;;;2.63;70.21
17764;BME280;22245;52.832;13.816;2023-04-06T03:54:23;101981.03;;;2.52;70.38
17764;BME280;22245;52.832;13.816;2023-04-06T03:57:46;101982.28;;;2.40;70.60
17764;BME280;22245;52.832;13.816;2023-04-06T04:01:08;101991.34;;;2.29;70.69
17764;BME280;22245;52.832;13.816;2023-04-06T04:04:30;101995.13;;;2.21;70.87
17764;BME280;22245;52.832;13.816;2023-04-06T04:07:51;101989.31;;;2.09;71.35
17764;BME280;22245;52.832;13.816;2023-04-06T04:11:17;101993.94;;;2.01;71.58
17764;BME280;22245;52.832;13.816;2023-04-06T04:14:44;101998.47;;;1.96;71.58
17764;BME280;22245;52.832;13.816;2023-04-06T04:18:06;102004.75;;;1.90;72.16
17764;BME280;22245;52.832;13.816;2023-04-06T04:21:29;102000.59;;;1.83;72.57
17764;BME280;22245;52.832;13.816;2023-04-06T04:24:55;102003.41;;;1.77;73.07
17764;BME280;22245;52.832;13.816;2023-04-06T04:28:18;102007.03;;;1.71;73.20
17764;BME280;22245;52.832;13.816;2023-04-06T04:31:41;102004.59;;;1.65;73.59
17764;BME280;22245;52.832;13.816;2023-04-06T04:35:09;102013.53;;;1.57;73.14
17764;BME280;22245;52.832;13.816;2023-04-06T04:38:35;102021.56;;;1.51;73.22
17764;BME280;22245;52.832;13.816;2023-04-06T04:41:57;102020.88;;;1.44;74.45
17764;BME280;22245;52.832;13.816;2023-04-06T04:45:20;102015.75;;;1.40;73.89
17764;BME280;22245;52.832;13.816;2023-04-06T04:48:44;102023.78;;;1.34;74.19
17764;BME280;22245;52.832;13.816;2023-04-06T04:52:07;102012.53;;;1.28;75.28
17764;BME280;22245;52.832;13.816;2023-04-06T04:55:47;102019.59;;;1.26;75.08
17764;BME280;22245;52.832;13.816;2023-04-06T04:59:11;102017.00;;;1.25;74.75
17764;BME280;22245;52.832;13.816;2023-04-06T05:02:36;102016.22;;;1.21;75.34
17764;BME280;22245;52.832;13.816;2023-04-06T05:06:09;102018.88;;;1.20;74.66
17764;BME280;22245;52.832;13.816;2023-04-06T05:09:34;102023.28;;;1.19;74.69
17764;BME280;22245;52.832;13.816;2023-04-06T05:12:56;102027.72;;;1.15;74.93
17764;BME280;22245;52.832;13.816;2023-04-06T05:16:19;102029.53;;;1.13;75.01
17764;BME280;22245;52.832;13.816;2023-04-06T05:19:43;102030.44;;;1.11;75.95
17764;BME280;22245;52.832;13.816;2023-04-06T05:23:10;102032.19;;;1.12;76.09
17764;BME280;22245;52.832;13.816;2023-04-06T05:26:32;102026.94;;;1.12;76.01
17764;BME280;22245;52.832;13.816;2023-04-06T05:30:01;102024.28;;;1.13;76.25
17764;BME280;22245;52.832;13.816;2023-04-06T05:33:27;102037.31;;;1.17;76.07
17764;BME280;22245;52.832;13.816;2023-04-06T05:36:59;102039.09;;;1.16;75.60
17764;BME280;22245;52.832;13.816;2023-04-06T05:40:22;102046.03;;;1.19;75.89
17764;BME280;22245;52.832;13.816;2023-04-06T05:43:44;102044.22;;;1.21;75.70
17764;BME280;22245;52.832;13.816;2023-04-06T05:47:06;102042.38;;;1.24;76.80
17764;BME280;22245;52.832;13.816;2023-04-06T05:50:29;102051.00;;;1.29;76.85
17764;BME280;22245;52.832;13.816;2023-04-06T05:53:51;102051.66;;;1.38;77.09
17764;BME280;22245;52.832;13.816;2023-04-06T05:57:16;102047.97;;;1.45;76.57
17764;BME280;22245;52.832;13.816;2023-04-06T06:00:38;102042.44;;;1.56;75.87
17764;BME280;22245;52.832;13.816;2023-04-06T06:04:01;102048.25;;;1.69;75.56
17764;BME280;22245;52.832;13.816;2023-04-06T06:07:25;102048.91;;;1.77;75.30
17764;BME280;22245;52.832;13.816;2023-04-06T06:10:52;102044.28;;;1.85;75.56
17764;BME280;22245;52.832;13.816;2023-04-06T06:14:17;102050.13;;;1.97;75.58
17764;BME280;22245;52.832;13.816;2023-04-06T06:17:41;102044.53;;;2.08;75.15
17764;BME280;22245;52.832;13.816;2023-04-06T06:21:04;102045.13;;;2.19;74.77
17764;BME280;22245;52.832;13.816;2023-04-06T06:24:27;102046.53;;;2.31;74.89
17764;BME280;22245;52.832;13.816;2023-04-06T06:27:52;102042.63;;;2.44;74.36
17764;BME280;22245;52.832;13.816;2023-04-06T06:31:15;102049.31;;;2.55;73.85
17764;BME280;22245;52.832;13.816;2023-04-06T06:34:39;102049.88;;;2.66;73.67
17764;BME280;22245;52.832;13.816;2023-04-06T06:38:02;102048.56;;;2.80;72.86
17764;BME280;22245;52.832;13.816;2023-04-06T06:41:26;102050.75;;;2.94;72.54
17764;BME280;22245;52.832;13.816;2023-04-06T06:44:48;102049.50;;;3.06;72.58
17764;BME280;22245;52.832;13.816;2023-04-06T06:48:11;102055.31;;;3.15;72.56
17764;BME280;22245;52.832;13.816;2023-04-06T06:51:33;102045.25;;;3.28;72.75
17764;BME280;22245;52.832;13.816;2023-04-06T06:54:55;102051.88;;;3.40;72.45
17764;BME280;22245;52.832;13.816;2023-04-06T06:58:18;102047.97;;;3.52;72.14
17764;BME280;22245;52.832;13.816;2023-04-06T07:01:40;102055.38;;;3.66;71.84
17764;BME280;22245;52.832;13.816;2023-04-06T07:05:04;102046.25;;;3.76;71.35
17764;BME280;22245;52.832;13.816;2023-04-06T07:08:46;102042.25;;;3.90;71.00
17764;BME280;22245;52.832;13.816;2023-04-06T07:12:08;102048.13;;;3.98;69.92
17764;BME280;22245;52.832;13.816;2023-04-06T07:15:30;102049.41;;;4.10;68.35
17764;BME280;22245;52.832;13.816;2023-04-06T07:18:51;102048.97;;;4.23;68.04
17764;BME280;22245;52.832;13.816;2023-04-06T07:22:15;102042.47;;;4.31;64.47
17764;BME280;22245;52.832;13.816;2023-04-06T07:25:37;102044.59;;;4.45;63.70
17764;BME280;22245;52.832;13.816;2023-04-06T07:28:59;102036.22;;;4.58;62.94
17764;BME280;22245;52.832;13.816;2023-04-06T07:32:21;102040.13;;;4.70;61.69
17764;BME280;22245;52.832;13.816;2023-04-06T07:35:42;102044.94;;;4.82;60.44
17764;BME280;22245;52.832;13.816;2023-04-06T07:39:08;102047.03;;;4.96;60.66
17764;BME280;22245;52.832;13.816;2023-04-06T07:42:30;102043.88;;;5.09;59.96
17764;BME280;22245;52.832;13.816;2023-04-06T07:45:53;102040.66;;;5.22;59.17
17764;BME280;22245;52.832;13.816;2023-04-06T07:49:17;102037.44;;;5.36;58.46
17764;BME280;22245;52.832;13.816;2023-04-06T07:52:41;102032.56;;;5.48;58.16
17764;BME280;22245;52.832;13.816;2023-04-06T07:56:05;102043.50;;;5.59;56.95
17764;BME280;22245;52.832;13.816;2023-04-06T07:59:27;102045.66;;;5.72;56.43
17764;BME280;22245;52.832;13.816;2023-04-06T08:02:48;102042.44;;;5.84;56.21
17764;BME280;22245;52.832;13.816;2023-04-06T08:06:10;102033.16;;;5.94;55.06
17764;BME280;22245;52.832;13.816;2023-04-06T08:09:32;102040.59;;;6.07;54.48
17764;BME280;22245;52.832;13.816;2023-04-06T08:12:56;102042.81;;;6.16;53.08
17764;BME280;22245;52.832;13.816;2023-04-06T08:16:18;102042.25;;;6.29;52.48
17764;BME280;22245;52.832;13.816;2023-04-06T08:19:42;102039.41;;;6.33;51.47
17764;BME280;22245;52.832;13.816;2023-04-06T08:23:03;102034.50;;;6.43;51.47
17764;BME280;22245;52.832;13.816;2023-04-06T08:26:27;102041.91;;;6.56;49.38
17764;BME280;22245;52.832;13.816;2023-04-06T08:29:50;102032.56;;;6.66;49.79
17764;BME280;22245;52.832;13.816;2023-04-06T08:33:12;102038.28;;;6.76;49.45
17764;BME280;22245;52.832;13.816;2023-04-06T08:36:35;102041.34;;;6.86;48.53
17764;BME280;22245;52.832;13.816;2023-04-06T08:39:57;102031.16;;;6.95;48.91
17764;BME280;22245;52.832;13.816;2023-04-06T08:43:22;102030.63;;;7.06;49.10
17764;BME280;22245;52.832;13.816;2023-04-06T08:46:46;102034.53;;;7.17;48.84
17764;BME280;22245;52.832;13.816;2023-04-06T08:50:10;102039.38;;;7.26;47.54
17764;BME280;22245;52.832;13.816;2023-04-06T08:53:32;102030.50;;;7.27;46.90
17764;BME280;22245;52.832;13.816;2023-04-06T08:56:55;102033.44;;;7.38;47.50
17764;BME280;22245;52.832;13.816;2023-04-06T09:00:17;102026.81;;;7.47;46.51
17764;BME280;22245;52.832;13.816;2023-04-06T09:03:42;102033.28;;;7.59;47.52
17764;BME280;22245;52.832;13.816;2023-04-06T09:07:04;102033.66;;;7.69;46.36
17764;BME280;22245;52.832;13.816;2023-04-06T09:10:26;102026.47;;;7.71;45.44
17764;BME280;22245;52.832;13.816;2023-04-06T09:13:49;102026.72;;;7.66;43.79
17764;BME280;22245;52.832;13.816;2023-04-06T09:17:20;102021.25;;;7.70;46.36
17764;BME280;22245;52.832;13.816;2023-04-06T09:20:43;102015.69;;;7.74;46.49
17764;BME280;22245;52.832;13.816;2023-04-06T09:24:08;102016.16;;;7.82;46.76
17764;BME280;22245;52.832;13.816;2023-04-06T09:27:32;102024.41;;;7.94;45.63
17764;BME280;22245;52.832;13.816;2023-04-06T09:30:54;102016.97;;;8.01;44.05
17764;BME280;22245;52.832;13.816;2023-04-06T09:34:21;102011.56;;;8.02;44.27
17764;BME280;22245;52.832;13.816;2023-04-06T09:37:46;102002.78;;;8.02;44.14
17764;BME280;22245;52.832;13.816;2023-04-06T09:41:08;102008.84;;;8.04;43.84
17764;BME280;22245;52.832;13.816;2023-04-06T09:44:30;102013.59;;;8.15;44.11
17764;BME280;22245;52.832;13.816;2023-04-06T09:47:52;102017.94;;;8.32;43.87
17764;BME280;22245;52.832;13.816;2023-04-06T09:51:18;102012.63;;;8.48;44.32
17764;BME280;22245;52.832;13.816;2023-04-06T09:54:42;102010.94;;;8.63;43.25
17764;BME280;22245;52.832;13.816;2023-04-06T09:58:06;102010.25;;;8.75;42.37
17764;BME280;22245;52.832;13.816;2023-04-06T10:01:30;102004.22;;;8.88;42.88
17764;BME280;22245;52.832;13.816;2023-04-06T10:04:57;101999.88;;;8.87;41.85
17764;BME280;22245;52.832;13.816;2023-04-06T10:08:24;102003.03;;;8.93;41.49
17764;BME280;22245;52.832;13.816;2023-04-06T10:11:53;101997.84;;;9.06;41.38
17764;BME280;22245;52.832;13.816;2023-04-06T10:15:16;101990.94;;;9.18;41.27
17764;BME280;22245;52.832;13.816;2023-04-06T10:18:45;101989.28;;;9.32;39.97
17764;BME280;22245;52.832;13.816;2023-04-06T10:22:10;101989.38;;;9.45;39.61
17764;BME280;22245;52.832;13.816;2023-04-06T10:25:34;101987.00;;;9.54;38.50
17764;BME280;22245;52.832;13.816;2023-04-06T10:29:03;101989.28;;;9.61;38.95
17764;BME280;22245;52.832;13.816;2023-04-06T10:32:32;101989.03;;;9.65;40.02
17764;BME280;22245;52.832;13.816;2023-04-06T10:35:54;101987.63;;;9.74;40.21
17764;BME280;22245;52.832;13.816;2023-04-06T10:39:24;101976.59;;;9.80;40.27
17764;BME280;22245;52.832;13.816;2023-04-06T10:42:47;101977.91;;;9.88;40.61
17764;BME280;22245;52.832;13.816;2023-04-06T10:46:10;101981.59;;;9.99;39.78
17764;BME280;22245;52.832;13.816;2023-04-06T10:49:32;101988.44;;;10.04;38.96
17764;BME280;22245;52.832;13.816;2023-04-06T10:53:00;101975.41;;;10.13;39.39
17764;BME280;22245;52.832;13.816;2023-04-06T10:56:24;101977.00;;;10.16;36.25
17764;BME280;22245;52.832;13.816;2023-04-06T10:59:48;101977.00;;;10.16;38.12
17764;BME280;22245;52.832;13.816;2023-04-06T11:03:11;101980.13;;;10.23;36.87
17764;BME280;22245;52.832;13.816;2023-04-06T11:06:33;101978.72;;;10.32;37.66
17764;BME280;22245;52.832;13.816;2023-04-06T11:09:55;101970.19;;;10.39;39.80
17764;BME280;22245;52.832;13.816;2023-04-06T11:13:40;101971.44;;;10.48;38.51
17764;BME280;22245;52.832;13.816;2023-04-06T11:17:03;101970.50;;;10.49;37.84
17764;BME280;22245;52.832;13.816;2023-04-06T11:20:26;101974.47;;;10.56;39.55
17764;BME280;22245;52.832;13.816;2023-04-06T11:23:48;101977.28;;;10.68;40.01
17764;BME280;22245;52.832;13.816;2023-04-06T11:27:10;101963.44;;;10.76;39.67
17764;BME280;22245;52.832;13.816;2023-04-06T11:30:32;101957.72;;;10.82;39.17
17764;BME280;22245;52.832;13.816;2023-04-06T11:33:55;101959.97;;;10.88;38.71
17764;BME280;22245;52.832;13.816;2023-04-06T11:37:19;101965.84;;;10.93;37.81
17764;BME280;22245;52.832;13.816;2023-04-06T11:40:41;101954.84;;;10.98;39.32
17764;BME280;22245;52.832;13.816;2023-04-06T11:44:03;101952.84;;;11.02;37.48
17764;BME280;22245;52.832;13.816;2023-04-06T11:47:28;101954.47;;;11.04;38.08
17764;BME280;22245;52.832;13.816;2023-04-06T11:50:55;101951.59;;;11.07;38.24
17764;BME280;22245;52.832;13.816;2023-04-06T11:54:29;101954.03;;;11.10;38.14
17764;BME280;22245;52.832;13.816;2023-04-06T11:57:51;101955.75;;;11.11;37.84
17764;BME280;22245;52.832;13.816;2023-04-06T12:01:13;101945.09;;;11.11;37.86
17764;BME280;22245;52.832;13.816;2023-04-06T12:04:35;101944.22;;;11.11;37.94
17764;BME280;22245;52.832;13.816;2023-04-06T12:07:56;101944.13;;;11.12;37.76
17764;BME280;22245;52.832;13.816;2023-04-06T12:11:24;101947.53;;;11.14;37.60
17764;BME280;22245;52.832;13.816;2023-04-06T12:14:46;101941.25;;;11.15;37.72
17764;BME280;22245;52.832;13.816;2023-04-06T12:18:08;101937.72;;;11.15;39.01
17764;BME280;22245;52.832;13.816;2023-04-06T12:21:30;101941.66;;;11.09;38.32
17764;BME280;22245;52.832;13.816;2023-04-06T12:24:52;101945.50;;;11.05;38.83
17764;BME280;22245;52.832;13.816;2023-04-06T12:28:16;101950.31;;;11.00;38.69
17764;BME280;22245;52.832;13.816;2023-04-06T12:31:39;101945.94;;;10.99;39.05
17764;BME280;22245;52.832;13.816;2023-04-06T12:35:01;101942.47;;;10.97;38.72
17764;BME280;22245;52.832;13.816;2023-04-06T12:38:23;101939.06;;;10.95;37.67
17764;BME280;22245;52.832;13.816;2023-04-06T12:41:45;101943.66;;;10.93;39.07
17764;BME280;22245;52.832;13.816;2023-04-06T12:45:09;101941.94;;;10.92;38.97
17764;BME280;22245;52.832;13.816;2023-04-06T12:48:31;101936.75;;;10.90;39.50
17764;BME280;22245;52.832;13.816;2023-04-06T12:51:53;101933.31;;;10.88;39.63
17764;BME280;22245;52.832;13.816;2023-04-06T12:55:15;101931.81;;;10.84;39.48
17764;BME280;22245;52.832;13.816;2023-04-06T12:58:37;101929.25;;;10.82;39.29
17764;BME280;22245;52.832;13.816;2023-04-06T13:02:03;101921.25;;;10.82;39.43
17764;BME280;22245;52.832;13.816;2023-04-06T13:05:24;101926.38;;;10.85;38.94
17764;BME280;22245;52.832;13.816;2023-04-06T13:08:49;101922.22;;;10.81;38.70
17764;BME280;22245;52.832;13.816;2023-04-06T13:12:11;101914.97;;;10.83;39.41
17764;BME280;22245;52.832;13.816;2023-04-06T13:15:32;101914.75;;;10.86;38.75
17764;BME280;22245;52.832;13.816;2023-04-06T13:18:56;101915.50;;;10.89;38.65
17764;BME280;22245;52.832;13.816;2023-04-06T13:22:18;101919.78;;;10.91;38.65
17764;BME280;22245;52.832;13.816;2023-04-06T13:25:40;101916.16;;;10.92;37.91
17764;BME280;22245;52.832;13.816;2023-04-06T13:29:02;101915.09;;;10.95;38.11
17764;BME280;22245;52.832;13.816;2023-04-06T13:32:23;101902.84;;;10.92;37.26
17764;BME280;22245;52.832;13.816;2023-04-06T13:35:47;101913.59;;;10.91;38.01
17764;BME280;22245;52.832;13.816;2023-04-06T13:39:08;101907.28;;;10.92;38.20
17764;BME280;22245;52.832;13.816;2023-04-06T13:42:30;101904.41;;;10.95;37.04
17764;BME280;22245;52.832;13.816;2023-04-06T13:45:53;101906.25;;;10.94;37.19
17764;BME280;22245;52.832;13.816;2023-04-06T13:49:15;101892.91;;;10.94;36.83
17764;BME280;22245;52.832;13.816;2023-04-06T13:52:38;101892.47;;;10.88;37.34
17764;BME280;22245;52.832;13.816;2023-04-06T13:56:00;101894.94;;;10.91;37.55
17764;BME280;22245;52.832;13.816;2023-04-06T13:59:21;101893.53;;;10.98;37.35
17764;BME280;22245;52.832;13.816;2023-04-06T14:02:43;101887.91;;;11.03;35.76
17764;BME280;22245;52.832;13.816;2023-04-06T14:06:10;101884.06;;;11.07;36.45
17764;BME280;22245;52.832;13.816;2023-04-06T14:09:48;101882.69;;;11.14;35.21
17764;BME280;22245;52.832;13.816;2023-04-06T14:13:10;101878.44;;;11.11;35.38
17764;BME280;22245;52.832;13.816;2023-04-06T14:16:32;101873.94;;;11.12;35.38
17764;BME280;22245;52.832;13.816;2023-04-06T14:19:53;101882.81;;;11.12;35.21
17764;BME280;22245;52.832;13.816;2023-04-06T14:23:15;101880.00;;;11.14;35.13
17764;BME280;22245;52.832;13.816;2023-04-06T14:26:38;101875.53;;;11.14;34.85
17764;BME280;22245;52.832;13.816;2023-04-06T14:30:01;101878.31;;;11.13;35.24
17764;BME280;22245;52.832;13.816;2023-04-06T14:33:23;101875.53;;;11.14;35.57
17764;BME280;22245;52.832;13.816;2023-04-06T14:36:45;101875.34;;;11.18;35.64
17764;BME280;22245;52.832;13.816;2023-04-06T14:40:07;101871.63;;;11.20;34.41
17764;BME280;22245;52.832;13.816;2023-04-06T14:43:30;101871.50;;;11.22;34.84
17764;BME280;22245;52.832;13.816;2023-04-06T14:46:52;101874.91;;;11.24;35.65
17764;BME280;22245;52.832;13.816;2023-04-06T14:50:13;101863.19;;;11.26;36.12
17764;BME280;22245;52.832;13.816;2023-04-06T14:53:35;101868.06;;;11.33;35.29
17764;BME280;22245;52.832;13.816;2023-04-06T14:56:57;101863.91;;;11.41;35.48
17764;BME280;22245;52.832;13.816;2023-04-06T15:00:20;101863.75;;;11.56;36.02
17764;BME280;22245;52.832;13.816;2023-04-06T15:03:42;101864.94;;;11.65;33.83
17764;BME280;22245;52.832;13.816;2023-04-06T15:07:04;101867.97;;;11.71;34.34
17764;BME280;22245;52.832;13.816;2023-04-06T15:10:25;101868.09;;;11.83;34.74
17764;BME280;22245;52.832;13.816;2023-04-06T15:13:46;101865.28;;;11.84;33.38
17764;BME280;22245;52.832;13.816;2023-04-06T15:17:09;101876.19;;;11.81;33.74
17764;BME280;22245;52.832;13.816;2023-04-06T15:20:31;101869.16;;;11.80;33.92
17764;BME280;22245;52.832;13.816;2023-04-06T15:23:52;101861.50;;;11.76;34.77
17764;BME280;22245;52.832;13.816;2023-04-06T15:27:14;101862.47;;;11.75;34.35
17764;BME280;22245;52.832;13.816;2023-04-06T15:30:36;101867.97;;;11.71;34.53
17764;BME280;22245;52.832;13.816;2023-04-06T15:34:00;101861.16;;;11.67;33.15
17764;BME280;22245;52.832;13.816;2023-04-06T15:37:22;101866.50;;;11.67;34.15
17764;BME280;22245;52.832;13.816;2023-04-06T15:40:44;101861.53;;;11.63;34.49
17764;BME280;22245;52.832;13.816;2023-04-06T15:44:06;101865.47;;;11.57;34.93
17764;BME280;22245;52.832;13.816;2023-04-06T15:47:27;101875.63;;;11.52;35.17
17764;BME280;22245;52.832;13.816;2023-04-06T15:50:50;101863.69;;;11.44;35.38
17764;BME280;22245;52.832;13.816;2023-04-06T15:54:12;101863.25;;;11.38;35.01
17764;BME280;22245;52.832;13.816;2023-04-06T15:57:34;101865.41;;;11.33;35.87
17764;BME280;22245;52.832;13.816;2023-04-06T16:00:56;101852.38;;;11.28;35.99
17764;BME280;22245;52.832;13.816;2023-04-06T16:04:18;101857.94;;;11.25;35.09
17764;BME280;22245;52.832;13.816;2023-04-06T16:07:41;101867.78;;;11.24;34.64
17764;BME280;22245;52.832;13.816;2023-04-06T16:11:03;101857.41;;;11.33;34.57
17764;BME280;22245;52.832;13.816;2023-04-06T16:14:25;101859.75;;;11.37;34.37
17764;BME280;22245;52.832;13.816;2023-04-06T16:17:47;101864.44;;;11.84;33.92
17764;BME280;22245;52.832;13.816;2023-04-06T16:21:14;101858.22;;;12.45;32.87
17764;BME280;22245;52.832;13.816;2023-04-06T16:24:38;101855.69;;;13.02;32.72
17764;BME280;22245;52.832;13.816;2023-04-06T16:28:00;101863.88;;;13.46;31.65
17764;BME280;22245;52.832;13.816;2023-04-06T16:31:23;101857.00;;;13.87;30.91
17764;BME280;22245;52.832;13.816;2023-04-06T16:34:45;101864.84;;;14.12;29.85
17764;BME280;22245;52.832;13.816;2023-04-06T16:38:07;101865.88;;;14.32;30.16
17764;BME280;22245;52.832;13.816;2023-04-06T16:41:30;101859.81;;;14.51;29.94
17764;BME280;22245;52.832;13.816;2023-04-06T16:44:52;101857.00;;;14.53;29.61
17764;BME280;22245;52.832;13.816;2023-04-06T16:48:14;101871.44;;;14.40;29.90
17764;BME280;22245;52.832;13.816;2023-04-06T16:51:35;101862.66;;;14.17;30.08
17764;BME280;22245;52.832;13.816;2023-04-06T16:54:57;101863.41;;;13.96;30.51
17764;BME280;22245;52.832;13.816;2023-04-06T16:58:19;101866.63;;;13.79;30.46
17764;BME280;22245;52.832;13.816;2023-04-06T17:01:41;101865.19;;;13.63;30.92
17764;BME280;22245;52.832;13.816;2023-04-06T17:05:03;101859.84;;;13.40;30.45
17764;BME280;22245;52.832;13.816;2023-04-06T17:08:25;101865.66;;;13.11;31.64
17764;BME280;22245;52.832;13.816;2023-04-06T17:11:47;101868.28;;;12.77;31.98
17764;BME280;22245;52.832;13.816;2023-04-06T17:15:11;101867.69;;;12.49;32.60
17764;BME280;22245;52.832;13.816;2023-04-06T17:18:32;101867.47;;;12.28;33.08
17764;BME280;22245;52.832;13.816;2023-04-06T17:21:54;101867.41;;;12.05;33.62
17764;BME280;22245;52.832;13.816;2023-04-06T17:25:15;101871.50;;;11.85;33.72
17764;BME280;22245;52.832;13.816;2023-04-06T17:28:37;101869.06;;;11.69;34.02
17764;BME280;22245;52.832;13.816;2023-04-06T17:32:00;101871.13;;;11.52;33.93
17764;BME280;22245;52.832;13.816;2023-04-06T17:35:22;101877.56;;;11.37;34.99
17764;BME280;22245;52.832;13.816;2023-04-06T17:38:44;101875.97;;;11.21;35.86